Time;durP1;ratioP1;P1;durP2;ratioP2;P2;SDS_P1;SDS_P2;PMS_P1;PMS_P2;Temp;Humidity;BMP_temperature;BMP_pressure;BME280_temperature;BME280_humidity;BME280_pressure;Samples;Min_cycle;Max_cycle;Signal;HPM_P1;HPM_P2
2022/01/24 00:02:30;;;;;;;7.75;3.50;;;;;;;5.85;100.00;101514.50;5019301;28;20064;-48
2022/01/24 00:05:33;;;;;;;21.55;3.55;;;;;;;5.81;100.00;101520.03;5019005;28;20049;-48
2022/01/24 00:08:37;;;;;;;10.05;2.47;;;;;;;5.83;100.00;101519.63;5018886;28;20045;-48
2022/01/24 00:18:04;;;;;;;10.55;3.15;;;;;;;5.88;100.00;101519.25;5018994;28;20042;-48
2022/01/24 00:27:52;;;;;;;11.02;3.70;;;;;;;5.88;100.00;101520.03;5035115;28;20437;-48
2022/01/24 00:30:56;;;;;;;15.38;3.90;;;;;;;5.87;100.00;101518.44;5038247;28;20048;-48
2022/01/24 00:33:59;;;;;;;7.38;3.60;;;;;;;5.87;100.00;101518.44;5038659;28;20044;-48
2022/01/24 00:37:03;;;;;;;18.38;5.10;;;;;;;5.89;100.00;101518.81;5020017;28;20406;-48
2022/01/24 00:40:08;;;;;;;11.43;2.53;;;;;;;5.90;100.00;101519.63;5018730;28;20053;-48
2022/01/24 00:43:54;;;;;;;16.70;4.30;;;;;;;5.91;100.00;101518.44;5018294;28;20049;-48
2022/01/24 00:46:57;;;;;;;17.27;3.30;;;;;;;5.85;100.00;101509.75;5018291;28;20411;-48
2022/01/24 00:53:49;;;;;;;12.10;3.53;;;;;;;5.81;100.00;101520.03;5017935;28;20184;-48
2022/01/24 00:56:34;;;;;;;7.80;3.33;;;;;;;5.73;100.00;101517.69;5014079;28;20478;-48
2022/01/24 00:59:38;;;;;;;15.18;5.00;;;;;;;5.70;100.00;101521.25;5015498;28;20048;-48
2022/01/24 01:02:41;;;;;;;17.25;3.72;;;;;;;5.76;100.00;101512.16;5015832;28;20053;-48
2022/01/24 01:06:05;;;;;;;7.05;2.80;;;;;;;5.78;100.00;101525.59;5015511;28;20501;-48
2022/01/24 01:19:15;;;;;;;9.82;2.95;;;;;;;5.65;100.00;101533.50;5015354;28;19913;-48
2022/01/24 01:22:18;;;;;;;12.32;4.30;;;;;;;5.64;100.00;101531.16;5014676;28;20505;-48
2022/01/24 01:25:21;;;;;;;13.32;5.53;;;;;;;5.66;100.00;101512.19;5014959;28;20061;-48
2022/01/24 01:28:27;;;;;;;20.10;4.20;;;;;;;5.71;100.00;101522.84;4995853;28;20046;-48
2022/01/24 01:31:50;;;;;;;34.58;3.83;;;;;;;5.71;100.00;101531.94;4995669;28;20118;-48
2022/01/24 01:38:43;;;;;;;17.08;3.70;;;;;;;5.61;100.00;101521.69;5013791;28;20053;-48
2022/01/24 01:55:36;;;;;;;13.88;2.92;;;;;;;5.53;100.00;101509.09;5014555;28;20375;-48
2022/01/24 01:58:40;;;;;;;7.40;2.08;;;;;;;5.51;100.00;101505.94;5014690;28;20049;-48
2022/01/24 02:01:43;;;;;;;14.00;2.88;;;;;;;5.44;100.00;101503.22;5013242;28;20068;-48
2022/01/24 02:04:46;;;;;;;12.73;3.53;;;;;;;5.46;100.00;101506.34;5013790;28;20046;-48
2022/01/24 02:07:51;;;;;;;12.90;3.03;;;;;;;5.51;100.00;101494.09;5014090;28;20383;-48
2022/01/24 02:10:55;;;;;;;6.20;2.72;;;;;;;5.49;100.00;101507.53;5013789;28;20395;-48
2022/01/24 02:14:03;;;;;;;16.67;4.15;;;;;;;5.52;100.00;101503.97;5014694;28;20442;-48
2022/01/24 02:17:13;;;;;;;12.00;4.18;;;;;;;5.53;100.00;101511.06;5021476;28;20505;-48
2022/01/24 02:26:31;;;;;;;17.13;4.68;;;;;;;5.50;100.00;101511.88;4992181;28;20061;-48
2022/01/24 02:30:10;;;;;;;10.45;3.40;;;;;;;5.52;100.00;101507.53;4992806;28;20054;-48
2022/01/24 02:33:14;;;;;;;14.13;4.25;;;;;;;5.48;100.00;101509.50;4973327;28;20050;-48
2022/01/24 02:36:22;;;;;;;9.75;3.13;;;;;;;5.36;100.00;101505.22;4976883;28;20051;-48
2022/01/24 02:48:22;;;;;;;;;;;;;;;5.42;100.00;101500.06;4992640;28;20065;-48
2022/01/24 02:49:24;;;;;;;2.13;1.15;;;;;;;5.41;100.00;101495.75;4991965;28;19917;-48
2022/01/24 02:52:28;;;;;;;3.22;1.63;;;;;;;5.41;100.00;101489.41;4992090;28;20061;-48
2022/01/24 02:55:32;;;;;;;6.43;1.98;;;;;;;5.37;100.00;101494.97;4992504;28;20065;-48
2022/01/24 02:58:36;;;;;;;12.88;3.33;;;;;;;5.41;100.00;101489.41;4992362;28;20066;-48
2022/01/24 03:01:44;;;;;;;7.53;2.40;;;;;;;5.41;100.00;101495.75;4992408;28;20058;-48
2022/01/24 03:04:48;;;;;;;4.22;2.30;;;;;;;5.32;100.00;101498.13;4992239;28;20399;-48
2022/01/24 03:07:51;;;;;;;12.48;3.38;;;;;;;5.41;100.00;101498.50;4991993;28;20065;-48
2022/01/24 03:10:55;;;;;;;20.02;3.35;;;;;;;5.42;100.00;101496.50;4991787;28;20065;-48
2022/01/24 03:13:59;;;;;;;4.70;2.35;;;;;;;5.32;100.00;101496.16;4991850;28;20058;-48
2022/01/24 03:17:05;;;;;;;18.02;2.55;;;;;;;5.37;100.00;101483.91;4991736;28;20054;-48
2022/01/24 03:20:09;;;;;;;8.30;2.83;;;;;;;5.34;100.00;101490.22;4991696;28;20116;-48
2022/01/24 03:23:14;;;;;;;14.30;3.22;;;;;;;5.38;100.00;101491.00;4991960;28;20081;-48
2022/01/24 03:26:17;;;;;;;12.80;3.22;;;;;;;5.38;100.00;101491.78;4991547;28;20050;-48
2022/01/24 03:29:21;;;;;;;11.20;3.90;;;;;;;5.36;100.00;101493.38;4992007;28;20046;-48
2022/01/24 03:32:24;;;;;;;21.00;3.90;;;;;;;5.30;100.00;101489.47;4972734;28;20054;-48
2022/01/24 03:35:28;;;;;;;5.60;2.00;;;;;;;5.27;100.00;101485.53;4972497;28;20057;-48
2022/01/24 03:38:32;;;;;;;16.30;3.20;;;;;;;5.31;100.00;101493.78;4972570;28;20057;-48
2022/01/24 03:41:36;;;;;;;6.13;2.00;;;;;;;5.27;100.00;101479.19;4972330;28;20043;-48
2022/01/24 03:44:43;;;;;;;10.95;3.63;;;;;;;5.26;100.00;101483.94;4972306;28;20062;-48
2022/01/24 03:48:06;;;;;;;6.13;2.38;;;;;;;5.25;100.00;101481.56;4988999;28;20065;-48
2022/01/24 03:51:14;;;;;;;11.82;4.38;;;;;;;5.22;100.00;101482.38;4991629;28;20061;-48
2022/01/24 03:54:17;;;;;;;9.10;1.80;;;;;;;5.18;100.00;101487.91;4991040;28;20045;-48
2022/01/24 03:57:20;;;;;;;15.00;4.20;;;;;;;5.13;100.00;101479.25;4991690;28;20061;-48
2022/01/24 04:00:24;;;;;;;9.48;3.40;;;;;;;5.15;100.00;101483.19;4991582;28;20057;-48
2022/01/24 04:03:28;;;;;;;7.70;2.80;;;;;;;5.19;100.00;101483.19;4991597;28;20057;-48
2022/01/24 04:06:33;;;;;;;8.60;2.50;;;;;;;5.23;100.00;101483.97;4991561;28;20050;-48
2022/01/24 04:09:39;;;;;;;6.90;3.08;;;;;;;5.24;100.00;101482.78;4991389;28;20085;-48
2022/01/24 04:12:42;;;;;;;12.25;2.95;;;;;;;5.23;100.00;101489.47;4990691;28;20073;-48
2022/01/24 04:16:09;;;;;;;11.52;3.10;;;;;;;5.23;100.00;101487.50;4991395;28;20046;-48
2022/01/24 04:22:47;;;;;;;4.43;1.77;;;;;;;5.26;100.00;101496.97;4986215;28;20061;-48
2022/01/24 04:25:51;;;;;;;8.02;2.13;;;;;;;5.23;100.00;101497.75;4991238;28;20422;-48
2022/01/24 04:28:55;;;;;;;13.10;4.63;;;;;;;5.21;100.00;101489.09;4991172;28;20058;-48
2022/01/24 04:31:59;;;;;;;6.65;3.83;;;;;;;5.15;100.00;101498.97;4994506;28;20054;-48
2022/01/24 04:35:03;;;;;;;11.68;4.18;;;;;;;5.13;100.00;101496.59;4994594;28;20066;-48
2022/01/24 04:38:06;;;;;;;6.80;1.85;;;;;;;5.12;100.00;101485.97;4994778;28;20054;-48
2022/01/24 04:41:20;;;;;;;7.97;2.70;;;;;;;5.07;100.00;101491.88;4993980;28;20057;-48
2022/01/24 04:51:25;;;;;;;6.38;3.22;;;;;;;5.08;100.00;101482.41;4994770;28;20518;-48
2022/01/24 04:57:33;;;;;;;11.25;2.53;;;;;;;5.11;100.00;101470.59;4994540;28;20065;-48
2022/01/24 05:00:37;;;;;;;6.82;1.25;;;;;;;5.08;100.00;101476.91;4994360;28;20077;-48
2022/01/24 05:03:40;;;;;;;15.25;2.55;;;;;;;5.08;100.00;101477.69;4994652;28;20442;-48
2022/01/24 05:06:44;;;;;;;11.27;2.92;;;;;;;5.05;100.00;101474.91;4994326;28;20054;-48
2022/01/24 05:09:58;;;;;;;8.48;1.75;;;;;;;5.00;100.00;101478.13;4994321;28;20042;-48
2022/01/24 05:23:30;;;;;;;14.38;3.03;;;;;;;4.82;100.00;101483.66;4993894;28;20518;-48
2022/01/24 05:26:33;;;;;;;11.00;2.95;;;;;;;4.74;100.00;101484.06;4993255;28;20050;-50
2022/01/24 05:29:37;;;;;;;8.25;2.53;;;;;;;4.65;100.00;101480.91;4993884;28;20776;-48
2022/01/24 05:32:41;;;;;;;6.18;1.85;;;;;;;4.71;100.00;101485.66;4974396;28;20074;-50
2022/01/24 05:35:44;;;;;;;16.10;3.05;;;;;;;4.73;100.00;101485.25;4974637;28;20058;-50
2022/01/24 05:38:47;;;;;;;11.82;1.88;;;;;;;4.69;100.00;101492.75;4993949;28;20054;-50
2022/01/24 05:41:51;;;;;;;5.00;2.10;;;;;;;4.71;100.00;101488.41;4993323;28;20403;-48
2022/01/24 05:44:55;;;;;;;11.20;3.13;;;;;;;4.71;100.00;101484.84;4993944;28;20392;-48
2022/01/24 05:47:58;;;;;;;6.57;3.08;;;;;;;4.70;100.00;101488.81;4993546;28;20058;-50
2022/01/24 05:51:02;;;;;;;11.75;5.10;;;;;;;4.68;100.00;101488.41;4993505;28;20057;-49
2022/01/24 05:54:07;;;;;;;8.07;2.95;;;;;;;4.66;100.00;101493.53;4993573;28;20061;-50
2022/01/24 05:57:11;;;;;;;7.28;2.50;;;;;;;4.65;100.00;101500.22;4993481;28;20660;-48
2022/01/24 06:00:14;;;;;;;3.35;1.73;;;;;;;4.64;100.00;101502.19;4993291;28;20131;-48
2022/01/24 06:03:18;;;;;;;7.35;2.90;;;;;;;4.61;100.00;101509.28;4991799;28;20502;-48
2022/01/24 06:06:22;;;;;;;4.80;2.08;;;;;;;4.66;100.00;101512.84;4993032;28;20069;-50
2022/01/24 06:09:26;;;;;;;6.57;1.75;;;;;;;4.69;100.00;101514.81;4993171;28;20069;-50
2022/01/24 06:12:29;;;;;;;16.80;2.55;;;;;;;4.66;100.00;101521.13;4993295;28;20061;-48
2022/01/24 06:15:34;;;;;;;11.88;2.47;;;;;;;4.69;100.00;101523.88;4993063;28;20058;-49
2022/01/24 06:18:37;;;;;;;31.30;5.38;;;;;;;4.63;100.00;101528.22;4993196;28;20404;-48
2022/01/24 06:21:44;;;;;;;8.75;4.28;;;;;;;4.63;100.00;101540.03;4993070;28;20065;-48
2022/01/24 06:24:48;;;;;;;7.20;2.03;;;;;;;4.62;100.00;101543.19;4992334;28;20061;-48
2022/01/24 06:27:52;;;;;;;28.92;2.80;;;;;;;4.52;100.00;101542.03;4991301;28;20423;-48
2022/01/24 06:30:56;;;;;;;13.48;3.33;;;;;;;4.47;100.00;101538.84;4992722;28;20058;-48
2022/01/24 06:33:59;;;;;;;28.17;6.93;;;;;;;4.46;100.00;101545.56;4992850;28;20050;-48
2022/01/24 06:37:03;;;;;;;15.85;4.38;;;;;;;4.46;100.00;101546.31;4992372;28;20046;-48
2022/01/24 06:40:08;;;;;;;10.20;4.30;;;;;;;4.43;100.00;101547.13;4991249;28;20069;-48
2022/01/24 06:43:12;;;;;;;9.23;3.30;;;;;;;4.49;100.00;101544.75;4992047;28;20042;-48
2022/01/24 06:46:16;;;;;;;4.13;1.85;;;;;;;4.42;100.00;101556.56;4991468;28;20057;-48
2022/01/24 06:49:19;;;;;;;4.25;1.48;;;;;;;4.44;100.00;101556.97;4992506;28;20411;-48
2022/01/24 06:52:22;;;;;;;6.38;2.53;;;;;;;4.45;100.00;101553.03;4992016;28;20069;-48
2022/01/24 06:55:26;;;;;;;4.38;2.42;;;;;;;4.52;100.00;101550.31;4992415;28;20368;-48
2022/01/24 06:58:29;;;;;;;8.73;4.03;;;;;;;4.49;100.00;101547.53;4992118;28;20146;-48
2022/01/24 07:01:33;;;;;;;13.02;2.05;;;;;;;4.48;100.00;101546.72;4992248;28;20122;-49
2022/01/24 07:04:39;;;;;;;31.00;4.85;;;;;;;4.51;100.00;101540.44;4972897;28;20415;-48
2022/01/24 07:07:43;;;;;;;15.93;3.20;;;;;;;4.51;100.00;101548.72;4989091;28;20403;-48
2022/01/24 07:10:46;;;;;;;22.05;3.40;;;;;;;4.49;100.00;101540.03;4991872;28;20058;-48
2022/01/24 07:13:52;;;;;;;17.05;3.63;;;;;;;4.47;100.00;101542.41;4992246;28;20458;-48
2022/01/24 07:19:59;;;;;;;7.63;2.72;;;;;;;4.45;100.00;101544.78;4991695;28;20069;-48
2022/01/24 07:23:03;;;;;;;11.35;2.97;;;;;;;4.40;100.00;101542.38;4991088;28;20061;-50
2022/01/24 07:26:06;;;;;;;18.60;3.60;;;;;;;4.41;100.00;101543.19;4990706;28;20062;-50
2022/01/24 07:29:10;;;;;;;5.82;2.83;;;;;;;4.35;100.00;101553.81;4980029;28;20089;-50
2022/01/24 07:32:13;;;;;;;10.77;4.25;;;;;;;4.29;100.00;101558.13;4982010;28;20062;-48
2022/01/24 07:35:17;;;;;;;24.20;5.13;;;;;;;4.32;100.00;101557.34;4980166;28;20058;-50
2022/01/24 07:38:20;;;;;;;17.35;2.28;;;;;;;4.36;100.00;101558.16;4981537;28;20058;-50
2022/01/24 07:41:27;;;;;;;10.57;2.95;;;;;;;4.36;100.00;101560.91;4981255;28;20050;-50
2022/01/24 07:44:31;;;;;;;14.15;2.45;;;;;;;4.45;100.00;101561.31;4978719;28;20046;-50
2022/01/24 07:47:34;;;;;;;22.38;4.82;;;;;;;4.46;100.00;101567.63;4984156;28;20419;-50
2022/01/24 07:50:41;;;;;;;9.73;3.40;;;;;;;4.46;100.00;101573.91;4980999;28;20050;-50
2022/01/24 07:53:45;;;;;;;17.42;5.00;;;;;;;4.46;100.00;101573.91;4981113;28;20058;-50
2022/01/24 07:56:48;;;;;;;12.20;3.63;;;;;;;4.43;100.00;101566.44;4984565;28;20400;-50
2022/01/24 07:59:52;;;;;;;2.20;1.63;;;;;;;4.50;100.00;101568.41;4991022;28;20518;-50
2022/01/24 08:02:57;;;;;;;6.93;2.17;;;;;;;4.48;100.00;101566.03;4991377;28;20134;-50
2022/01/24 08:06:00;;;;;;;21.80;3.83;;;;;;;4.45;100.00;101577.06;4994893;28;20057;-50
2022/01/24 08:09:05;;;;;;;5.40;2.25;;;;;;;4.46;100.00;101579.44;4995019;28;20058;-48
2022/01/24 08:12:09;;;;;;;8.90;2.17;;;;;;;4.49;100.00;101584.19;4995148;28;20054;-48
2022/01/24 08:15:17;;;;;;;22.20;4.38;;;;;;;4.41;100.00;101581.78;4994771;28;20072;-48
2022/01/24 08:18:20;;;;;;;20.60;4.38;;;;;;;4.40;100.00;101580.22;4994349;28;20058;-49
2022/01/24 08:21:24;;;;;;;17.30;4.15;;;;;;;4.50;100.00;101580.22;4995121;28;20061;-48
2022/01/24 08:24:28;;;;;;;19.73;3.80;;;;;;;4.55;100.00;101571.56;4994852;28;20046;-48
2022/01/24 08:27:32;;;;;;;16.50;2.78;;;;;;;4.53;100.00;101578.66;4995211;28;20050;-50
2022/01/24 08:30:36;;;;;;;17.65;2.88;;;;;;;4.49;100.00;101586.94;4994929;28;20069;-48
2022/01/24 08:33:39;;;;;;;14.95;4.60;;;;;;;4.43;100.00;101583.00;4995131;28;20050;-50
2022/01/24 08:36:43;;;;;;;18.80;3.92;;;;;;;4.46;100.00;101584.94;4993663;28;20058;-50
2022/01/24 08:39:46;;;;;;;18.05;6.38;;;;;;;4.49;100.00;101589.69;4994881;28;20046;-50
2022/01/24 08:43:04;;;;;;;14.18;3.83;;;;;;;4.43;100.00;101596.78;4994623;28;20050;-48
2022/01/24 08:46:07;;;;;;;26.17;4.43;;;;;;;4.42;100.00;101584.16;4993683;28;20046;-50
2022/01/24 08:49:11;;;;;;;11.82;2.95;;;;;;;4.53;100.00;101579.44;4993439;28;20058;-50
2022/01/24 08:52:14;;;;;;;9.50;2.30;;;;;;;4.53;100.00;101584.16;4994268;28;20058;-50
2022/01/24 08:55:17;;;;;;;10.10;2.83;;;;;;;4.52;100.00;101588.91;4984544;28;20065;-50
2022/01/24 08:58:23;;;;;;;27.98;3.25;;;;;;;4.47;100.00;101586.53;4975131;28;20065;-50
2022/01/24 09:01:27;;;;;;;12.38;2.03;;;;;;;4.44;100.00;101587.31;4975185;28;20082;-50
2022/01/24 09:04:30;;;;;;;10.45;4.45;;;;;;;4.50;100.00;101591.25;4974074;28;20062;-50
2022/01/24 09:07:34;;;;;;;14.68;3.47;;;;;;;4.55;100.00;101593.63;4989969;28;20054;-48
2022/01/24 09:10:40;;;;;;;16.55;4.90;;;;;;;4.58;100.00;101589.31;4993830;28;20054;-50
2022/01/24 09:13:43;;;;;;;14.13;2.38;;;;;;;4.64;100.00;101590.50;4994081;28;20057;-48
2022/01/24 09:16:47;;;;;;;11.88;4.15;;;;;;;4.69;100.00;101579.06;4993086;28;20487;-48
2022/01/24 09:19:50;;;;;;;9.85;3.13;;;;;;;4.76;100.00;101581.03;4993308;28;20383;-48
2022/01/24 09:22:53;;;;;;;12.05;3.63;;;;;;;4.80;100.00;101587.34;4992751;28;20503;-48
2022/01/24 09:25:57;;;;;;;11.00;4.68;;;;;;;4.78;100.00;101585.00;4993433;28;20049;-48
2022/01/24 09:29:01;;;;;;;9.00;3.25;;;;;;;4.83;100.00;101592.09;4993662;28;20061;-48
2022/01/24 09:32:05;;;;;;;13.23;4.45;;;;;;;4.86;100.00;101591.28;4993599;28;20529;-48
2022/01/24 09:35:10;;;;;;;9.93;3.40;;;;;;;4.95;100.00;101594.44;4993465;28;20510;-48
2022/01/24 09:38:15;;;;;;;6.63;2.42;;;;;;;5.03;100.00;101596.00;4993547;28;20061;-48
2022/01/24 09:41:19;;;;;;;6.18;3.28;;;;;;;4.96;100.00;101607.09;4992472;28;20065;-48
2022/01/24 09:44:22;;;;;;;16.70;4.60;;;;;;;4.94;100.00;101609.41;4974099;28;20058;-48
2022/01/24 09:47:27;;;;;;;12.00;4.93;;;;;;;4.93;100.00;101614.19;4987981;28;20046;-48
2022/01/24 09:50:31;;;;;;;15.30;3.83;;;;;;;4.94;100.00;101617.69;4992433;28;20062;-48
2022/01/24 09:53:37;;;;;;;17.65;4.03;;;;;;;4.99;100.00;101618.13;4993709;28;20050;-48
2022/01/24 09:56:41;;;;;;;8.55;2.08;;;;;;;4.99;100.00;101618.13;4993453;28;20054;-48
2022/01/24 09:59:44;;;;;;;8.27;4.05;;;;;;;4.99;100.00;101614.56;4992656;28;20065;-48
2022/01/24 10:02:50;;;;;;;27.35;3.40;;;;;;;5.06;100.00;101617.31;4993198;28;20061;-48
2022/01/24 10:05:56;;;;;;;27.33;4.72;;;;;;;5.14;100.00;101613.38;4992862;28;20061;-48
2022/01/24 10:09:07;;;;;;;16.95;5.50;;;;;;;5.16;100.00;101616.53;4993205;28;20065;-48
2022/01/24 10:19:20;;;;;;;8.13;3.03;;;;;;;4.99;100.00;101617.31;4992862;28;20069;-48
2022/01/24 10:22:25;;;;;;;17.67;2.92;;;;;;;5.23;100.00;101619.28;4991849;28;20057;-48
2022/01/24 10:25:29;;;;;;;18.40;3.95;;;;;;;5.27;100.00;101614.53;4993132;28;20088;-48
2022/01/24 10:28:43;;;;;;;4.60;2.83;;;;;;;5.32;100.00;101612.19;4973254;28;20058;-48
2022/01/24 10:31:48;;;;;;;18.40;2.80;;;;;;;5.26;100.00;101615.75;4973328;28;20057;-48
2022/01/24 10:34:51;;;;;;;15.63;3.35;;;;;;;5.34;100.00;101607.03;4972479;28;20054;-48
2022/01/24 10:38:21;;;;;;;22.42;5.38;;;;;;;5.35;100.00;101602.28;4991326;28;20057;-48
2022/01/24 10:41:39;;;;;;;10.40;2.22;;;;;;;5.41;100.00;101611.78;4991832;28;20050;-48
2022/01/24 10:44:42;;;;;;;9.68;2.92;;;;;;;5.44;100.00;101605.44;4992310;28;20386;-48
2022/01/24 10:47:50;;;;;;;19.45;5.57;;;;;;;5.52;100.00;101606.22;4992401;28;20113;-48
2022/01/24 10:51:17;;;;;;;13.13;2.90;;;;;;;5.51;100.00;101607.38;4992287;28;20065;-48
2022/01/24 10:54:27;;;;;;;15.60;3.88;;;;;;;5.67;100.00;101600.25;4991005;28;20498;-48
2022/01/24 10:57:31;;;;;;;13.65;2.88;;;;;;;5.76;100.00;101600.59;4992414;28;20515;-48
2022/01/24 11:00:37;;;;;;;7.28;2.85;;;;;;;5.84;100.00;101607.72;4991539;28;20065;-48
2022/01/24 11:03:40;;;;;;;15.23;3.13;;;;;;;5.88;100.00;101597.44;4992190;28;20070;-48
2022/01/24 11:06:47;;;;;;;4.93;3.00;;;;;;;5.94;100.00;101593.06;4991620;28;20496;-48
2022/01/24 11:09:51;;;;;;;10.73;2.72;;;;;;;5.88;100.00;101597.44;4992015;28;20065;-48
2022/01/24 11:12:55;;;;;;;13.70;3.10;;;;;;;5.79;100.00;101605.34;4992347;28;20383;-48
2022/01/24 11:16:00;;;;;;;15.75;5.32;;;;;;;5.79;100.00;101599.81;4991913;28;20046;-48
2022/01/24 11:19:11;;;;;;;22.20;6.57;;;;;;;5.70;100.00;101596.69;4992017;28;20105;-48
2022/01/24 11:22:20;;;;;;;28.55;4.40;;;;;;;5.75;100.00;101595.47;4991612;28;20054;-48
2022/01/24 11:25:25;;;;;;;8.75;1.83;;;;;;;5.74;100.00;101591.16;4991056;28;20503;-48
2022/01/24 11:28:28;;;;;;;5.10;2.28;;;;;;;5.67;100.00;101603.03;4971440;28;20081;-48
2022/01/24 11:31:40;;;;;;;14.25;3.83;;;;;;;5.65;100.00;101591.56;4971937;28;20062;-47
2022/01/24 11:34:49;;;;;;;2.78;1.45;;;;;;;5.68;100.00;101588.00;4971937;28;20058;-48
2022/01/24 11:37:53;;;;;;;10.57;2.30;;;;;;;5.71;100.00;101581.69;4989573;28;20061;-48
2022/01/24 11:41:02;;;;;;;2.97;1.83;;;;;;;5.82;100.00;101581.63;4991192;28;20069;-48
2022/01/24 11:44:12;;;;;;;3.42;1.17;;;;;;;5.82;100.00;101587.16;4991451;28;20065;-48
2022/01/24 11:47:24;;;;;;;8.02;3.05;;;;;;;5.76;100.00;101583.25;4991434;28;20518;-48
2022/01/24 11:50:36;;;;;;;7.90;1.80;;;;;;;5.73;100.00;101579.31;4971439;28;20070;-48
2022/01/24 11:53:44;;;;;;;7.00;2.72;;;;;;;5.87;100.00;101582.03;4972036;28;20058;-48
2022/01/24 11:56:47;;;;;;;6.55;1.80;;;;;;;5.66;100.00;101584.84;4980772;28;20061;-48
2022/01/24 12:00:12;;;;;;;10.32;3.03;;;;;;;5.78;100.00;101581.63;4991093;28;20507;-48
2022/01/24 12:03:26;;;;;;;8.18;1.92;;;;;;;5.79;100.00;101580.47;4991556;28;20057;-48
2022/01/24 12:06:30;;;;;;;4.22;2.30;;;;;;;5.79;100.00;101579.66;4990414;28;20065;-48
2022/01/24 12:09:34;;;;;;;4.65;2.50;;;;;;;5.88;100.00;101580.84;4991649;28;20061;-48
2022/01/24 12:12:49;;;;;;;3.28;1.52;;;;;;;5.87;100.00;101587.56;4991637;28;20134;-48
2022/01/24 12:16:07;;;;;;;2.28;2.05;;;;;;;5.76;100.00;101581.25;4991042;28;20061;-48
2022/01/24 12:19:12;;;;;;;8.48;3.00;;;;;;;5.66;100.00;101590.38;4990996;28;20061;-48
2022/01/24 12:22:37;;;;;;;6.55;2.45;;;;;;;5.62;100.00;101586.03;4990879;28;20057;-49
2022/01/24 12:26:05;;;;;;;4.10;1.08;;;;;;;5.60;100.00;101583.69;4990564;28;20142;-48
2022/01/24 12:29:21;;;;;;;5.80;1.63;;;;;;;5.67;100.00;101586.44;4971452;28;20408;-48
2022/01/24 12:32:26;;;;;;;8.45;2.35;;;;;;;5.70;100.00;101580.09;4970644;28;20066;-48
2022/01/24 12:35:30;;;;;;;9.60;0.95;;;;;;;5.72;100.00;101572.19;4971900;28;20475;-48
2022/01/24 12:38:52;;;;;;;8.00;1.83;;;;;;;5.71;100.00;101573.41;4971955;28;20054;-48
2022/01/24 12:42:00;;;;;;;5.20;1.48;;;;;;;5.76;100.00;101577.72;4971866;28;20253;-48
2022/01/24 12:48:49;;;;;;;5.87;1.40;;;;;;;5.70;100.00;101573.78;4970471;28;20065;-48
2022/01/24 12:51:52;;;;;;;11.55;2.50;;;;;;;5.70;100.00;101569.03;4972336;28;20296;-48
2022/01/24 12:54:58;;;;;;;7.70;1.33;;;;;;;5.75;100.00;101563.09;4983678;28;20050;-48
2022/01/24 12:58:02;;;;;;;9.68;2.90;;;;;;;5.77;100.00;101566.25;4994646;28;20062;-48
2022/01/24 13:01:30;;;;;;;6.13;2.47;;;;;;;5.80;100.00;101562.69;4994290;28;20427;-48
2022/01/24 13:04:39;;;;;;;5.90;1.83;;;;;;;5.85;100.00;101559.53;4993033;28;20065;-48
2022/01/24 13:07:58;;;;;;;7.40;2.17;;;;;;;5.88;100.00;101555.19;4994082;28;20073;-48
2022/01/24 13:11:01;;;;;;;8.02;2.15;;;;;;;5.79;100.00;101544.53;4993304;28;20049;-48
2022/01/24 13:14:14;;;;;;;7.15;2.28;;;;;;;5.70;100.00;101544.16;4994000;28;20049;-48
2022/01/24 13:21:06;;;;;;;10.00;2.85;;;;;;;5.82;100.00;101538.19;4993490;28;20065;-48
2022/01/24 13:24:06;;;;;;;11.65;1.40;;;;;;;5.87;100.00;101539.75;4993828;28;20046;-48
2022/01/24 13:27:10;;;;;;;9.60;1.83;;;;;;;5.89;100.00;101532.66;4993904;28;20055;-48
2022/01/24 13:30:25;;;;;;;5.40;2.15;;;;;;;5.95;100.00;101535.78;4993996;28;20066;-48
2022/01/24 13:33:34;;;;;;;12.65;2.38;;;;;;;5.98;100.00;101530.25;4993159;28;20057;-48
2022/01/24 13:36:38;;;;;;;4.53;1.10;;;;;;;5.94;100.00;101518.41;4993649;28;20165;-48
2022/01/24 13:39:53;;;;;;;7.93;3.10;;;;;;;5.85;100.00;101520.03;4993517;28;20057;-48
2022/01/24 13:42:56;;;;;;;4.13;1.08;;;;;;;5.76;100.00;101522.44;4993374;28;20061;-48
2022/01/24 13:46:03;;;;;;;6.45;2.22;;;;;;;5.79;100.00;101518.84;4993480;28;20057;-48
2022/01/24 13:49:12;;;;;;;5.90;2.80;;;;;;;5.72;100.00;101511.38;4998164;28;20080;-48
2022/01/24 13:52:18;;;;;;;13.35;3.67;;;;;;;5.77;100.00;101513.75;5012573;28;20074;-49
2022/01/24 13:55:23;;;;;;;5.47;2.55;;;;;;;5.80;100.00;101517.69;5011536;28;20050;-49
2022/01/24 13:58:27;;;;;;;10.45;3.72;;;;;;;5.83;100.00;101517.66;4964150;28;20062;-48
2022/01/24 14:01:31;;;;;;;10.15;2.53;;;;;;;5.89;100.00;101518.81;4992871;28;20058;-49
2022/01/24 14:04:44;;;;;;;14.88;4.40;;;;;;;5.78;100.00;101520.81;4992330;28;20053;-48
2022/01/24 14:07:47;;;;;;;3.20;1.73;;;;;;;5.65;100.00;101516.94;4991969;28;20122;-49
2022/01/24 14:10:56;;;;;;;19.05;3.33;;;;;;;5.66;100.00;101526.03;4992987;28;20073;-49
2022/01/24 14:14:04;;;;;;;13.95;3.58;;;;;;;5.68;100.00;101521.66;4991982;28;20058;-48
2022/01/24 14:20:19;;;;;;;7.82;3.03;;;;;;;5.78;100.00;101525.59;4991834;28;20098;-48
2022/01/24 14:23:32;;;;;;;9.13;2.42;;;;;;;5.83;100.00;101528.72;4992388;28;20081;-48
2022/01/24 14:26:46;;;;;;;22.80;2.65;;;;;;;5.86;100.00;101533.47;4992708;28;20069;-49
2022/01/24 14:29:50;;;;;;;8.63;2.42;;;;;;;5.86;100.00;101527.94;4991930;28;20054;-48
2022/01/24 14:33:14;;;;;;;7.30;2.63;;;;;;;5.96;100.00;101532.63;4992393;28;20069;-49
2022/01/24 14:36:18;;;;;;;11.27;3.30;;;;;;;5.94;100.00;101523.94;4991700;28;20053;-48
2022/01/24 14:39:22;;;;;;;10.30;2.83;;;;;;;5.93;100.00;101522.34;4992319;28;20047;-48
2022/01/24 14:42:44;;;;;;;16.33;4.05;;;;;;;5.92;100.00;101515.25;4993054;28;20456;-49
2022/01/24 14:45:48;;;;;;;2.70;1.35;;;;;;;5.99;100.00;101531.03;4992062;28;20054;-49
2022/01/24 14:48:56;;;;;;;6.10;1.60;;;;;;;5.94;100.00;101523.94;4991814;28;20061;-49
2022/01/24 14:52:09;;;;;;;5.40;2.63;;;;;;;5.86;100.00;101518.84;4991886;28;20069;-48
2022/01/24 14:55:13;;;;;;;12.05;3.08;;;;;;;5.76;100.00;101517.69;4991711;28;20060;-48
2022/01/24 14:58:16;;;;;;;16.42;2.75;;;;;;;5.71;100.00;101520.88;4972081;28;20055;-48
2022/01/24 15:01:21;;;;;;;9.18;4.28;;;;;;;5.54;100.00;101524.50;4991614;28;20058;-48
2022/01/24 15:04:25;;;;;;;11.80;4.50;;;;;;;5.50;100.00;101526.47;4991877;28;20077;-48
2022/01/24 15:07:29;;;;;;;9.65;3.20;;;;;;;5.36;100.00;101526.53;4991090;28;20054;-48
2022/01/24 15:10:35;;;;;;;11.52;2.55;;;;;;;5.29;100.00;101521.81;4979743;28;20057;-49
2022/01/24 15:13:44;;;;;;;13.90;2.20;;;;;;;5.31;100.00;101521.41;4990592;28;20058;-49
2022/01/24 15:16:58;;;;;;;18.30;4.60;;;;;;;5.39;100.00;101522.97;4991523;28;20387;-49
2022/01/24 15:26:45;;;;;;;;;;;;;;;5.30;100.00;101517.09;4991279;28;20065;-49
2022/01/24 15:29:49;;;;;;;9.85;2.25;;;;;;;5.18;100.00;101509.22;4989954;28;19921;-49
2022/01/24 15:32:52;;;;;;;12.18;1.75;;;;;;;5.11;100.00;101509.25;4991220;28;20073;-49
2022/01/24 15:35:56;;;;;;;16.85;3.10;;;;;;;5.15;100.00;101521.06;4991618;28;20054;-49
2022/01/24 15:39:03;;;;;;;13.30;4.88;;;;;;;5.20;100.00;101526.16;4990886;28;20042;-48
2022/01/24 15:42:55;;;;;;;26.77;3.90;;;;;;;5.22;100.00;101527.34;4989645;28;20058;-49
2022/01/24 15:48:56;;;;;;;11.73;2.97;;;;;;;4.98;100.00;101535.69;4972492;28;20050;-48
2022/01/24 15:51:59;;;;;;;15.68;2.75;;;;;;;4.90;100.00;101536.88;4989376;28;20061;-48
2022/01/24 15:55:06;;;;;;;8.57;2.50;;;;;;;4.92;100.00;101543.56;4989118;28;20073;-49
2022/01/24 15:58:10;;;;;;;14.68;2.97;;;;;;;5.00;100.00;101536.09;4971825;28;20081;-48
2022/01/24 16:01:13;;;;;;;22.85;5.88;;;;;;;5.09;100.00;101534.47;4976638;28;20062;-51
2022/01/24 16:04:17;;;;;;;8.75;3.00;;;;;;;5.15;100.00;101540.41;4989048;28;20050;-50
2022/01/24 16:07:20;;;;;;;35.22;3.83;;;;;;;5.10;100.00;101546.31;4991040;28;20065;-50
2022/01/24 16:10:33;;;;;;;11.38;3.45;;;;;;;5.03;100.00;101544.34;4990984;28;20065;-50
2022/01/24 16:13:37;;;;;;;17.30;2.90;;;;;;;5.02;100.00;101544.75;4991333;28;20066;-50
2022/01/24 16:16:41;;;;;;;35.88;3.83;;;;;;;4.90;100.00;101539.63;4990925;28;20065;-51